sensor_id;sensor_type;location;lat;lon;timestamp;pressure;altitude;pressure_sealevel;temperature;humidity
16738;BME280;17906;47.684;10.806;2023-02-21T00:01:39;93726.38;;;-2.31;83.15
16738;BME280;17906;47.684;10.806;2023-02-21T00:04:23;93735.88;;;-2.28;83.99
16738;BME280;17906;47.684;10.806;2023-02-21T00:07:08;93726.56;;;-2.32;83.06
16738;BME280;17906;47.684;10.806;2023-02-21T00:09:53;93726.72;;;-2.34;84.02
16738;BME280;17906;47.684;10.806;2023-02-21T00:12:37;93732.41;;;-2.28;83.80
16738;BME280;17906;47.684;10.806;2023-02-21T00:15:21;93723.38;;;-2.36;83.76
16738;BME280;17906;47.684;10.806;2023-02-21T00:18:06;93724.53;;;-2.38;85.72
16738;BME280;17906;47.684;10.806;2023-02-21T00:20:49;93719.91;;;-2.36;85.59
16738;BME280;17906;47.684;10.806;2023-02-21T00:23:34;93725.25;;;-2.28;85.53
16738;BME280;17906;47.684;10.806;2023-02-21T00:26:20;93721.28;;;-2.24;85.47
16738;BME280;17906;47.684;10.806;2023-02-21T00:29:05;93720.94;;;-2.29;85.30
16738;BME280;17906;47.684;10.806;2023-02-21T00:31:50;93720.72;;;-2.36;87.47
16738;BME280;17906;47.684;10.806;2023-02-21T00:34:34;93719.13;;;-2.28;89.73
16738;BME280;17906;47.684;10.806;2023-02-21T00:37:18;93716.31;;;-2.27;89.00
16738;BME280;17906;47.684;10.806;2023-02-21T00:40:03;93722.94;;;-2.23;88.51
16738;BME280;17906;47.684;10.806;2023-02-21T00:42:49;93709.41;;;-2.46;86.47
16738;BME280;17906;47.684;10.806;2023-02-21T00:45:33;93712.13;;;-2.64;87.17
16738;BME280;17906;47.684;10.806;2023-02-21T00:48:19;93713.44;;;-2.68;87.98
16738;BME280;17906;47.684;10.806;2023-02-21T00:51:04;93714.94;;;-2.65;87.11
16738;BME280;17906;47.684;10.806;2023-02-21T00:53:48;93708.78;;;-2.66;87.83
16738;BME280;17906;47.684;10.806;2023-02-21T00:56:32;93704.97;;;-2.63;86.28
16738;BME280;17906;47.684;10.806;2023-02-21T00:59:18;93697.94;;;-2.80;86.10
16738;BME280;17906;47.684;10.806;2023-02-21T01:02:03;93689.81;;;-2.79;86.87
16738;BME280;17906;47.684;10.806;2023-02-21T01:04:47;93680.19;;;-2.80;87.11
16738;BME280;17906;47.684;10.806;2023-02-21T01:07:31;93684.00;;;-2.82;87.42
16738;BME280;17906;47.684;10.806;2023-02-21T01:10:16;93691.59;;;-2.88;87.38
16738;BME280;17906;47.684;10.806;2023-02-21T01:13:00;93691.59;;;-2.88;87.38
16738;BME280;17906;47.684;10.806;2023-02-21T01:15:45;93675.56;;;-2.78;86.73
16738;BME280;17906;47.684;10.806;2023-02-21T01:18:29;93671.59;;;-2.74;85.87
16738;BME280;17906;47.684;10.806;2023-02-21T01:21:14;93667.16;;;-2.73;86.03
16738;BME280;17906;47.684;10.806;2023-02-21T01:23:58;93662.47;;;-2.79;85.98
16738;BME280;17906;47.684;10.806;2023-02-21T01:26:43;93660.31;;;-2.76;86.06
16738;BME280;17906;47.684;10.806;2023-02-21T01:29:27;93667.75;;;-2.79;85.58
16738;BME280;17906;47.684;10.806;2023-02-21T01:32:13;93657.19;;;-2.71;84.64
16738;BME280;17906;47.684;10.806;2023-02-21T01:34:57;93663.28;;;-2.79;84.97
16738;BME280;17906;47.684;10.806;2023-02-21T01:37:41;93656.81;;;-2.76;84.89
16738;BME280;17906;47.684;10.806;2023-02-21T01:40:26;93655.13;;;-2.85;83.67
16738;BME280;17906;47.684;10.806;2023-02-21T01:43:13;93652.59;;;-2.95;83.55
16738;BME280;17906;47.684;10.806;2023-02-21T01:45:58;93650.66;;;-3.11;82.35
16738;BME280;17906;47.684;10.806;2023-02-21T01:48:44;93659.53;;;-3.20;83.19
16738;BME280;17906;47.684;10.806;2023-02-21T01:51:33;93652.25;;;-3.18;82.63
16738;BME280;17906;47.684;10.806;2023-02-21T01:54:19;93650.69;;;-3.29;83.38
16738;BME280;17906;47.684;10.806;2023-02-21T01:57:05;93652.59;;;-3.39;84.62
16738;BME280;17906;47.684;10.806;2023-02-21T01:59:50;93640.78;;;-3.27;84.55
16738;BME280;17906;47.684;10.806;2023-02-21T02:02:39;93641.19;;;-3.39;83.44
16738;BME280;17906;47.684;10.806;2023-02-21T02:05:28;93643.16;;;-3.41;86.28
16738;BME280;17906;47.684;10.806;2023-02-21T02:08:12;93644.38;;;-3.36;84.18
16738;BME280;17906;47.684;10.806;2023-02-21T02:11:02;93646.09;;;-3.27;83.35
16738;BME280;17906;47.684;10.806;2023-02-21T02:14:07;93643.47;;;-3.62;84.15
16738;BME280;17906;47.684;10.806;2023-02-21T02:16:40;93646.22;;;-3.72;84.84
16738;BME280;17906;47.684;10.806;2023-02-21T02:19:48;93644.03;;;-3.77;86.40
16738;BME280;17906;47.684;10.806;2023-02-21T02:22:57;93644.78;;;-3.84;86.12
16738;BME280;17906;47.684;10.806;2023-02-21T02:25:39;93643.69;;;-3.82;87.55
16738;BME280;17906;47.684;10.806;2023-02-21T02:28:26;93642.59;;;-3.89;86.85
16738;BME280;17906;47.684;10.806;2023-02-21T02:31:15;93632.47;;;-4.11;89.71
16738;BME280;17906;47.684;10.806;2023-02-21T02:34:24;93634.97;;;-4.10;89.57
16738;BME280;17906;47.684;10.806;2023-02-21T02:36:58;93636.47;;;-3.89;87.49
16738;BME280;17906;47.684;10.806;2023-02-21T02:39:31;93618.97;;;-3.82;87.42
16738;BME280;17906;47.684;10.806;2023-02-21T02:42:07;93629.13;;;-3.78;86.81
16738;BME280;17906;47.684;10.806;2023-02-21T02:44:38;93634.50;;;-3.69;86.50
16738;BME280;17906;47.684;10.806;2023-02-21T02:47:07;93629.25;;;-3.61;85.93
16738;BME280;17906;47.684;10.806;2023-02-21T02:49:40;93629.63;;;-3.56;85.67
16738;BME280;17906;47.684;10.806;2023-02-21T02:52:08;93622.53;;;-3.56;85.50
16738;BME280;17906;47.684;10.806;2023-02-21T02:54:35;93629.31;;;-3.53;86.12
16738;BME280;17906;47.684;10.806;2023-02-21T02:57:04;93632.34;;;-3.48;85.02
16738;BME280;17906;47.684;10.806;2023-02-21T02:59:37;93625.78;;;-3.62;85.02
16738;BME280;17906;47.684;10.806;2023-02-21T03:02:25;93634.88;;;-3.64;84.72
16738;BME280;17906;47.684;10.806;2023-02-21T03:05:07;93636.09;;;-3.59;84.85
16738;BME280;17906;47.684;10.806;2023-02-21T03:07:46;93635.50;;;-3.70;86.00
16738;BME280;17906;47.684;10.806;2023-02-21T03:10:20;93633.44;;;-3.94;87.72
16738;BME280;17906;47.684;10.806;2023-02-21T03:13:01;93631.09;;;-3.97;86.63
16738;BME280;17906;47.684;10.806;2023-02-21T03:15:35;93626.03;;;-4.09;86.11
16738;BME280;17906;47.684;10.806;2023-02-21T03:18:08;93634.38;;;-4.03;87.35
16738;BME280;17906;47.684;10.806;2023-02-21T03:20:40;93632.31;;;-4.10;83.84
16738;BME280;17906;47.684;10.806;2023-02-21T03:23:10;93636.91;;;-4.29;85.32
16738;BME280;17906;47.684;10.806;2023-02-21T03:25:40;93634.09;;;-4.28;85.90
16738;BME280;17906;47.684;10.806;2023-02-21T03:28:07;93638.28;;;-4.25;85.97
16738;BME280;17906;47.684;10.806;2023-02-21T03:30:34;93641.00;;;-4.17;83.85
16738;BME280;17906;47.684;10.806;2023-02-21T03:33:01;93638.75;;;-4.12;84.69
16738;BME280;17906;47.684;10.806;2023-02-21T03:35:28;93632.22;;;-4.18;83.84
16738;BME280;17906;47.684;10.806;2023-02-21T03:37:57;93636.16;;;-4.22;83.57
16738;BME280;17906;47.684;10.806;2023-02-21T03:40:26;93634.88;;;-4.18;84.25
16738;BME280;17906;47.684;10.806;2023-02-21T03:42:54;93634.72;;;-4.16;83.58
16738;BME280;17906;47.684;10.806;2023-02-21T03:45:22;93635.78;;;-4.09;82.80
16738;BME280;17906;47.684;10.806;2023-02-21T03:47:48;93634.13;;;-4.10;83.91
16738;BME280;17906;47.684;10.806;2023-02-21T03:50:15;93640.25;;;-4.10;83.05
16738;BME280;17906;47.684;10.806;2023-02-21T03:52:42;93636.94;;;-4.12;82.66
16738;BME280;17906;47.684;10.806;2023-02-21T03:55:10;93645.81;;;-4.30;83.36
16738;BME280;17906;47.684;10.806;2023-02-21T03:57:36;93641.59;;;-4.23;83.36
16738;BME280;17906;47.684;10.806;2023-02-21T04:00:04;93638.72;;;-4.30;84.21
16738;BME280;17906;47.684;10.806;2023-02-21T04:02:31;93635.69;;;-4.35;85.14
16738;BME280;17906;47.684;10.806;2023-02-21T04:04:57;93635.53;;;-4.33;83.91
16738;BME280;17906;47.684;10.806;2023-02-21T04:07:25;93632.81;;;-4.42;84.80
16738;BME280;17906;47.684;10.806;2023-02-21T04:09:51;93640.69;;;-4.32;86.06
16738;BME280;17906;47.684;10.806;2023-02-21T04:12:19;93642.03;;;-4.28;86.02
16738;BME280;17906;47.684;10.806;2023-02-21T04:14:46;93648.78;;;-4.33;85.17
16738;BME280;17906;47.684;10.806;2023-02-21T04:17:12;93645.56;;;-4.37;83.71
16738;BME280;17906;47.684;10.806;2023-02-21T04:19:40;93652.31;;;-4.43;85.59
16738;BME280;17906;47.684;10.806;2023-02-21T04:22:06;93655.19;;;-4.36;84.39
16738;BME280;17906;47.684;10.806;2023-02-21T04:24:34;93641.50;;;-4.31;84.65
16738;BME280;17906;47.684;10.806;2023-02-21T04:27:00;93646.63;;;-4.48;82.90
16738;BME280;17906;47.684;10.806;2023-02-21T04:29:29;93637.25;;;-4.42;83.88
16738;BME280;17906;47.684;10.806;2023-02-21T04:31:55;93641.13;;;-4.37;84.13
16738;BME280;17906;47.684;10.806;2023-02-21T04:34:22;93645.66;;;-4.47;84.65
16738;BME280;17906;47.684;10.806;2023-02-21T04:36:48;93636.75;;;-4.46;85.41
16738;BME280;17906;47.684;10.806;2023-02-21T04:39:15;93638.56;;;-4.46;86.01
16738;BME280;17906;47.684;10.806;2023-02-21T04:41:41;93636.28;;;-4.41;84.91
16738;BME280;17906;47.684;10.806;2023-02-21T04:44:08;93638.81;;;-4.49;85.20
16738;BME280;17906;47.684;10.806;2023-02-21T04:46:36;93639.38;;;-4.46;84.85
16738;BME280;17906;47.684;10.806;2023-02-21T04:49:03;93632.81;;;-4.42;84.82
16738;BME280;17906;47.684;10.806;2023-02-21T04:51:30;93634.63;;;-4.42;84.33
16738;BME280;17906;47.684;10.806;2023-02-21T04:53:56;93630.31;;;-4.43;84.72
16738;BME280;17906;47.684;10.806;2023-02-21T04:56:24;93629.84;;;-4.39;84.54
16738;BME280;17906;47.684;10.806;2023-02-21T04:58:52;93645.56;;;-4.37;85.31
16738;BME280;17906;47.684;10.806;2023-02-21T05:01:19;93633.75;;;-4.60;84.24
16738;BME280;17906;47.684;10.806;2023-02-21T05:03:47;93637.78;;;-4.56;84.36
16738;BME280;17906;47.684;10.806;2023-02-21T05:06:17;93635.50;;;-4.51;85.02
16738;BME280;17906;47.684;10.806;2023-02-21T05:08:44;93637.16;;;-4.50;84.76
16738;BME280;17906;47.684;10.806;2023-02-21T05:11:11;93627.97;;;-4.46;84.11
16738;BME280;17906;47.684;10.806;2023-02-21T05:13:37;93639.81;;;-4.50;85.62
16738;BME280;17906;47.684;10.806;2023-02-21T05:16:05;93640.06;;;-4.71;87.91
16738;BME280;17906;47.684;10.806;2023-02-21T05:18:31;93627.63;;;-4.61;87.11
16738;BME280;17906;47.684;10.806;2023-02-21T05:21:00;93639.44;;;-4.55;87.96
16738;BME280;17906;47.684;10.806;2023-02-21T05:23:26;93625.59;;;-4.49;87.37
16738;BME280;17906;47.684;10.806;2023-02-21T05:26:00;93640.13;;;-4.53;87.55
16738;BME280;17906;47.684;10.806;2023-02-21T05:28:27;93640.16;;;-4.63;88.87
16738;BME280;17906;47.684;10.806;2023-02-21T05:30:53;93642.66;;;-4.61;86.68
16738;BME280;17906;47.684;10.806;2023-02-21T05:33:20;93636.69;;;-4.64;86.08
16738;BME280;17906;47.684;10.806;2023-02-21T05:35:47;93640.81;;;-4.79;87.11
16738;BME280;17906;47.684;10.806;2023-02-21T05:38:16;93651.91;;;-4.75;87.39
16738;BME280;17906;47.684;10.806;2023-02-21T05:40:43;93643.53;;;-4.71;86.05
16738;BME280;17906;47.684;10.806;2023-02-21T05:43:10;93656.91;;;-4.72;86.81
16738;BME280;17906;47.684;10.806;2023-02-21T05:45:37;93660.88;;;-4.86;85.60
16738;BME280;17906;47.684;10.806;2023-02-21T05:48:04;93654.72;;;-4.77;85.10
16738;BME280;17906;47.684;10.806;2023-02-21T05:50:30;93642.91;;;-4.82;84.75
16738;BME280;17906;47.684;10.806;2023-02-21T05:52:57;93649.19;;;-4.93;85.36
16738;BME280;17906;47.684;10.806;2023-02-21T05:55:25;93642.72;;;-5.08;87.03
16738;BME280;17906;47.684;10.806;2023-02-21T05:57:52;93647.19;;;-5.09;87.22
16738;BME280;17906;47.684;10.806;2023-02-21T06:00:22;93645.50;;;-5.00;88.01
16738;BME280;17906;47.684;10.806;2023-02-21T06:02:50;93641.03;;;-5.00;87.52
16738;BME280;17906;47.684;10.806;2023-02-21T06:05:18;93638.78;;;-4.95;85.63
16738;BME280;17906;47.684;10.806;2023-02-21T06:07:45;93629.66;;;-5.10;86.03
16738;BME280;17906;47.684;10.806;2023-02-21T06:10:12;93641.06;;;-5.09;87.00
16738;BME280;17906;47.684;10.806;2023-02-21T06:12:40;93630.50;;;-5.09;86.79
16738;BME280;17906;47.684;10.806;2023-02-21T06:15:08;93640.47;;;-5.03;86.08
16738;BME280;17906;47.684;10.806;2023-02-21T06:17:37;93635.94;;;-5.11;86.34
16738;BME280;17906;47.684;10.806;2023-02-21T06:20:04;93634.28;;;-5.12;85.80
16738;BME280;17906;47.684;10.806;2023-02-21T06:22:31;93639.78;;;-5.05;85.17
16738;BME280;17906;47.684;10.806;2023-02-21T06:24:58;93635.75;;;-5.00;85.78
16738;BME280;17906;47.684;10.806;2023-02-21T06:27:24;93641.56;;;-4.96;85.95
16738;BME280;17906;47.684;10.806;2023-02-21T06:29:52;93646.06;;;-5.06;85.46
16738;BME280;17906;47.684;10.806;2023-02-21T06:32:19;93643.81;;;-5.01;84.29
16738;BME280;17906;47.684;10.806;2023-02-21T06:34:45;93648.00;;;-4.99;84.34
16738;BME280;17906;47.684;10.806;2023-02-21T06:37:12;93657.88;;;-5.01;85.76
16738;BME280;17906;47.684;10.806;2023-02-21T06:39:39;93654.22;;;-4.90;86.43
16738;BME280;17906;47.684;10.806;2023-02-21T06:42:05;59087.34;;;-146.04;100.00
16738;BME280;17906;47.684;10.806;2023-02-21T06:44:32;93652.25;;;-4.88;86.25
16738;BME280;17906;47.684;10.806;2023-02-21T06:47:00;93648.09;;;-4.18;84.84
16738;BME280;17906;47.684;10.806;2023-02-21T06:49:26;93648.88;;;-3.72;81.75
16738;BME280;17906;47.684;10.806;2023-02-21T06:51:53;93637.59;;;-3.30;81.78
16738;BME280;17906;47.684;10.806;2023-02-21T06:54:19;93639.63;;;-2.64;78.04
16738;BME280;17906;47.684;10.806;2023-02-21T06:56:46;93635.53;;;-2.00;75.88
16738;BME280;17906;47.684;10.806;2023-02-21T06:59:13;93637.63;;;-1.53;73.14
16738;BME280;17906;47.684;10.806;2023-02-21T07:01:39;93642.59;;;-1.09;70.87
16738;BME280;17906;47.684;10.806;2023-02-21T07:04:07;93643.38;;;-0.93;70.64
16738;BME280;17906;47.684;10.806;2023-02-21T07:06:34;93644.28;;;-0.45;68.62
16738;BME280;17906;47.684;10.806;2023-02-21T07:09:00;93639.31;;;-0.17;67.78
16738;BME280;17906;47.684;10.806;2023-02-21T07:11:27;93639.31;;;-0.17;67.78
16738;BME280;17906;47.684;10.806;2023-02-21T07:13:56;93636.19;;;1.17;64.56
16738;BME280;17906;47.684;10.806;2023-02-21T07:16:23;93630.06;;;1.90;61.87
16738;BME280;17906;47.684;10.806;2023-02-21T07:18:50;93639.97;;;2.11;61.22
16738;BME280;17906;47.684;10.806;2023-02-21T07:21:20;93637.88;;;1.92;62.83
16738;BME280;17906;47.684;10.806;2023-02-21T07:23:47;93632.72;;;2.05;62.62
16738;BME280;17906;47.684;10.806;2023-02-21T07:26:14;93637.34;;;2.32;61.43
16738;BME280;17906;47.684;10.806;2023-02-21T07:28:41;93633.25;;;2.51;61.79
16738;BME280;17906;47.684;10.806;2023-02-21T07:31:07;59087.34;;;-146.04;100.00
16738;BME280;17906;47.684;10.806;2023-02-21T07:33:35;59087.34;;;-146.04;100.00
16738;BME280;17906;47.684;10.806;2023-02-21T07:36:02;93634.41;;;3.90;57.65
16738;BME280;17906;47.684;10.806;2023-02-21T07:38:30;93634.69;;;4.08;56.71
16738;BME280;17906;47.684;10.806;2023-02-21T07:40:59;93641.78;;;3.88;56.98
16738;BME280;17906;47.684;10.806;2023-02-21T07:43:27;93639.97;;;4.36;55.29
16738;BME280;17906;47.684;10.806;2023-02-21T07:45:54;93631.22;;;4.76;54.84
16738;BME280;17906;47.684;10.806;2023-02-21T07:48:21;93633.72;;;5.76;53.19
16738;BME280;17906;47.684;10.806;2023-02-21T07:50:48;93627.00;;;6.32;52.76
16738;BME280;17906;47.684;10.806;2023-02-21T07:53:15;93632.22;;;7.03;48.90
16738;BME280;17906;47.684;10.806;2023-02-21T07:55:43;59087.34;;;-146.04;100.00
16738;BME280;17906;47.684;10.806;2023-02-21T07:58:10;59087.34;;;-146.04;100.00
16738;BME280;17906;47.684;10.806;2023-02-21T08:00:36;93632.22;;;7.03;48.90
16738;BME280;17906;47.684;10.806;2023-02-21T08:03:03;93614.25;;;8.88;45.38
16738;BME280;17906;47.684;10.806;2023-02-21T08:05:29;93622.25;;;9.55;43.34
16738;BME280;17906;47.684;10.806;2023-02-21T08:07:56;93625.47;;;9.87;40.61
16738;BME280;17906;47.684;10.806;2023-02-21T08:10:24;93615.63;;;9.51;42.55
16738;BME280;17906;47.684;10.806;2023-02-21T08:12:52;93607.56;;;10.21;41.06
16738;BME280;17906;47.684;10.806;2023-02-21T08:15:18;93605.03;;;10.55;40.66
16738;BME280;17906;47.684;10.806;2023-02-21T08:17:47;93604.59;;;10.34;40.29
16738;BME280;17906;47.684;10.806;2023-02-21T08:20:13;93602.00;;;10.28;41.43
16738;BME280;17906;47.684;10.806;2023-02-21T08:22:40;93607.19;;;10.29;41.43
16738;BME280;17906;47.684;10.806;2023-02-21T08:25:08;93595.09;;;9.97;38.62
16738;BME280;17906;47.684;10.806;2023-02-21T08:27:37;93595.94;;;9.44;39.87
16738;BME280;17906;47.684;10.806;2023-02-21T08:30:06;93601.44;;;9.91;39.59
16738;BME280;17906;47.684;10.806;2023-02-21T08:32:34;93603.06;;;10.15;41.30
16738;BME280;17906;47.684;10.806;2023-02-21T08:35:01;93599.53;;;10.78;37.18
16738;BME280;17906;47.684;10.806;2023-02-21T08:37:30;93594.13;;;11.35;37.51
16738;BME280;17906;47.684;10.806;2023-02-21T08:39:58;93586.72;;;11.30;38.17
16738;BME280;17906;47.684;10.806;2023-02-21T08:42:25;93595.91;;;11.75;36.17
16738;BME280;17906;47.684;10.806;2023-02-21T08:44:51;93594.72;;;11.87;36.09
16738;BME280;17906;47.684;10.806;2023-02-21T08:47:19;93600.22;;;11.59;34.86
16738;BME280;17906;47.684;10.806;2023-02-21T08:49:47;93602.25;;;11.35;36.68
16738;BME280;17906;47.684;10.806;2023-02-21T08:52:14;93600.41;;;11.52;36.27
16738;BME280;17906;47.684;10.806;2023-02-21T08:54:41;93590.88;;;11.67;37.91
16738;BME280;17906;47.684;10.806;2023-02-21T08:57:08;93585.63;;;12.49;34.65
16738;BME280;17906;47.684;10.806;2023-02-21T08:59:36;93581.56;;;12.52;34.53
16738;BME280;17906;47.684;10.806;2023-02-21T09:02:13;93587.03;;;13.44;32.07
16738;BME280;17906;47.684;10.806;2023-02-21T09:04:42;93581.66;;;13.27;32.69
16738;BME280;17906;47.684;10.806;2023-02-21T09:07:08;93575.56;;;13.20;30.76
16738;BME280;17906;47.684;10.806;2023-02-21T09:09:36;93585.88;;;13.67;30.94
16738;BME280;17906;47.684;10.806;2023-02-21T09:12:03;93584.09;;;13.83;31.01
16738;BME280;17906;47.684;10.806;2023-02-21T09:14:32;93579.63;;;14.04;30.10
16738;BME280;17906;47.684;10.806;2023-02-21T09:16:59;93578.53;;;14.05;29.55
16738;BME280;17906;47.684;10.806;2023-02-21T09:19:26;93585.56;;;13.96;31.43
16738;BME280;17906;47.684;10.806;2023-02-21T09:21:53;93568.78;;;14.51;30.32
16738;BME280;17906;47.684;10.806;2023-02-21T09:24:21;93574.22;;;14.51;29.92
16738;BME280;17906;47.684;10.806;2023-02-21T09:26:49;93574.06;;;14.68;29.49
16738;BME280;17906;47.684;10.806;2023-02-21T09:29:18;93568.47;;;15.05;28.30
16738;BME280;17906;47.684;10.806;2023-02-21T09:31:45;93574.03;;;15.35;28.27
16738;BME280;17906;47.684;10.806;2023-02-21T09:34:11;93574.94;;;15.72;27.75
16738;BME280;17906;47.684;10.806;2023-02-21T09:36:38;93579.31;;;16.03;27.95
16738;BME280;17906;47.684;10.806;2023-02-21T09:39:06;59087.34;;;-146.04;100.00
16738;BME280;17906;47.684;10.806;2023-02-21T09:41:33;93574.22;;;15.03;28.61
16738;BME280;17906;47.684;10.806;2023-02-21T09:44:02;93569.13;;;15.37;27.73
16738;BME280;17906;47.684;10.806;2023-02-21T09:46:33;93572.66;;;15.33;28.34
16738;BME280;17906;47.684;10.806;2023-02-21T09:49:02;93566.97;;;15.45;29.13
16738;BME280;17906;47.684;10.806;2023-02-21T09:51:31;93558.81;;;15.55;27.86
16738;BME280;17906;47.684;10.806;2023-02-21T09:54:02;93557.97;;;15.49;28.18
16738;BME280;17906;47.684;10.806;2023-02-21T09:56:34;93560.72;;;15.80;27.02
16738;BME280;17906;47.684;10.806;2023-02-21T09:59:02;93562.38;;;16.16;27.91
16738;BME280;17906;47.684;10.806;2023-02-21T10:01:42;93557.09;;;16.71;27.46
16738;BME280;17906;47.684;10.806;2023-02-21T10:04:19;93554.72;;;16.49;25.28
16738;BME280;17906;47.684;10.806;2023-02-21T10:06:50;93553.63;;;16.40;26.72
16738;BME280;17906;47.684;10.806;2023-02-21T10:09:24;93545.75;;;17.03;27.12
16738;BME280;17906;47.684;10.806;2023-02-21T10:12:02;93544.78;;;17.38;26.57
16738;BME280;17906;47.684;10.806;2023-02-21T10:14:38;59087.34;;;-146.04;100.00
16738;BME280;17906;47.684;10.806;2023-02-21T10:17:12;59087.34;;;-146.04;100.00
16738;BME280;17906;47.684;10.806;2023-02-21T10:19:43;93542.72;;;18.61;22.43
16738;BME280;17906;47.684;10.806;2023-02-21T10:22:15;93542.91;;;18.70;22.88
16738;BME280;17906;47.684;10.806;2023-02-21T10:24:45;93540.13;;;18.17;22.73
16738;BME280;17906;47.684;10.806;2023-02-21T10:27:17;93538.25;;;17.73;24.21
16738;BME280;17906;47.684;10.806;2023-02-21T10:29:48;93542.25;;;18.78;22.21
16738;BME280;17906;47.684;10.806;2023-02-21T10:32:16;93530.81;;;18.42;22.12
16738;BME280;17906;47.684;10.806;2023-02-21T10:34:44;93535.78;;;18.06;22.85
16738;BME280;17906;47.684;10.806;2023-02-21T10:37:24;93537.22;;;18.32;23.90
16738;BME280;17906;47.684;10.806;2023-02-21T10:39:54;93537.13;;;18.08;24.09
16738;BME280;17906;47.684;10.806;2023-02-21T10:42:30;93534.22;;;18.34;23.75
16738;BME280;17906;47.684;10.806;2023-02-21T10:44:57;93536.31;;;18.08;23.02
16738;BME280;17906;47.684;10.806;2023-02-21T10:47:30;93531.66;;;18.08;23.51
16738;BME280;17906;47.684;10.806;2023-02-21T10:50:00;93528.22;;;18.27;23.18
16738;BME280;17906;47.684;10.806;2023-02-21T10:52:27;93527.28;;;18.12;23.88
16738;BME280;17906;47.684;10.806;2023-02-21T10:55:00;93526.91;;;16.91;24.74
16738;BME280;17906;47.684;10.806;2023-02-21T10:57:30;93526.97;;;16.81;26.05
16738;BME280;17906;47.684;10.806;2023-02-21T10:59:57;93517.72;;;17.21;25.06
16738;BME280;17906;47.684;10.806;2023-02-21T11:02:28;93518.13;;;16.94;25.83
16738;BME280;17906;47.684;10.806;2023-02-21T11:05:07;93511.25;;;17.51;25.99
16738;BME280;17906;47.684;10.806;2023-02-21T11:07:34;93502.22;;;17.51;23.97
16738;BME280;17906;47.684;10.806;2023-02-21T11:10:01;93504.16;;;16.96;25.43
16738;BME280;17906;47.684;10.806;2023-02-21T11:12:29;93502.00;;;16.93;24.57
16738;BME280;17906;47.684;10.806;2023-02-21T11:15:10;93497.28;;;16.98;26.28
16738;BME280;17906;47.684;10.806;2023-02-21T11:17:41;93491.69;;;17.63;23.46
16738;BME280;17906;47.684;10.806;2023-02-21T11:20:17;93495.13;;;16.95;24.81
16738;BME280;17906;47.684;10.806;2023-02-21T11:22:46;93494.50;;;17.08;24.64
16738;BME280;17906;47.684;10.806;2023-02-21T11:25:21;93485.47;;;17.52;24.37
16738;BME280;17906;47.684;10.806;2023-02-21T11:28:02;93480.66;;;17.34;25.56
16738;BME280;17906;47.684;10.806;2023-02-21T11:30:30;93474.81;;;17.51;25.23
16738;BME280;17906;47.684;10.806;2023-02-21T11:32:58;93478.81;;;17.24;25.02
16738;BME280;17906;47.684;10.806;2023-02-21T11:35:28;93470.75;;;16.94;24.78
16738;BME280;17906;47.684;10.806;2023-02-21T11:37:58;93458.25;;;17.27;25.35
16738;BME280;17906;47.684;10.806;2023-02-21T11:40:28;93459.44;;;17.84;24.01
16738;BME280;17906;47.684;10.806;2023-02-21T11:43:17;93454.28;;;17.04;24.35
16738;BME280;17906;47.684;10.806;2023-02-21T11:45:53;93454.88;;;16.26;25.98
16738;BME280;17906;47.684;10.806;2023-02-21T11:48:26;93443.81;;;16.57;26.07
16738;BME280;17906;47.684;10.806;2023-02-21T11:50:59;93450.78;;;16.08;26.48
16738;BME280;17906;47.684;10.806;2023-02-21T11:53:32;93443.09;;;16.20;26.61
16738;BME280;17906;47.684;10.806;2023-02-21T11:56:10;93440.94;;;16.17;26.43
16738;BME280;17906;47.684;10.806;2023-02-21T11:58:43;93437.81;;;16.55;26.70
16738;BME280;17906;47.684;10.806;2023-02-21T12:01:16;93426.09;;;16.44;26.39
16738;BME280;17906;47.684;10.806;2023-02-21T12:04:01;93417.81;;;16.59;26.06
16738;BME280;17906;47.684;10.806;2023-02-21T12:06:37;93418.44;;;16.25;26.02
16738;BME280;17906;47.684;10.806;2023-02-21T12:09:10;93417.19;;;16.72;25.36
16738;BME280;17906;47.684;10.806;2023-02-21T12:11:47;93412.59;;;16.63;25.50
16738;BME280;17906;47.684;10.806;2023-02-21T12:14:28;93409.31;;;16.61;24.84
16738;BME280;17906;47.684;10.806;2023-02-21T12:17:08;93405.81;;;16.45;25.35
16738;BME280;17906;47.684;10.806;2023-02-21T12:19:45;93392.09;;;16.55;25.07
16738;BME280;17906;47.684;10.806;2023-02-21T12:22:26;93395.97;;;16.49;26.30
16738;BME280;17906;47.684;10.806;2023-02-21T12:25:16;93404.88;;;16.05;26.96
16738;BME280;17906;47.684;10.806;2023-02-21T12:27:51;93395.50;;;16.21;26.42
16738;BME280;17906;47.684;10.806;2023-02-21T12:30:30;93391.16;;;16.15;26.74
16738;BME280;17906;47.684;10.806;2023-02-21T12:33:09;93390.72;;;15.83;25.99
16738;BME280;17906;47.684;10.806;2023-02-21T12:35:55;93382.78;;;15.71;27.18
16738;BME280;17906;47.684;10.806;2023-02-21T12:38:36;93375.72;;;15.55;26.43
16738;BME280;17906;47.684;10.806;2023-02-21T12:41:20;93375.13;;;15.78;26.35
16738;BME280;17906;47.684;10.806;2023-02-21T12:43:53;93377.34;;;15.56;25.55
16738;BME280;17906;47.684;10.806;2023-02-21T12:46:27;93372.16;;;15.39;25.73
16738;BME280;17906;47.684;10.806;2023-02-21T12:49:00;93366.47;;;15.41;25.95
16738;BME280;17906;47.684;10.806;2023-02-21T12:51:33;93365.31;;;15.36;24.99
16738;BME280;17906;47.684;10.806;2023-02-21T12:54:04;93360.16;;;15.15;25.45
16738;BME280;17906;47.684;10.806;2023-02-21T12:56:34;93364.50;;;15.05;26.76
16738;BME280;17906;47.684;10.806;2023-02-21T12:59:07;93354.69;;;15.04;27.10
16738;BME280;17906;47.684;10.806;2023-02-21T13:01:42;93354.66;;;14.69;27.47
16738;BME280;17906;47.684;10.806;2023-02-21T13:04:19;93347.53;;;14.63;27.00
16738;BME280;17906;47.684;10.806;2023-02-21T13:06:51;93339.00;;;14.23;27.54
16738;BME280;17906;47.684;10.806;2023-02-21T13:09:29;93335.53;;;14.48;27.45
16738;BME280;17906;47.684;10.806;2023-02-21T13:12:03;93336.00;;;14.30;27.69
16738;BME280;17906;47.684;10.806;2023-02-21T13:14:38;93325.41;;;14.39;27.34
16738;BME280;17906;47.684;10.806;2023-02-21T13:17:09;93325.34;;;14.18;26.89
16738;BME280;17906;47.684;10.806;2023-02-21T13:19:42;93329.38;;;14.06;26.78